createdAt,value
2022-09-06T00:01:01.080Z,99711.66
2022-09-06T00:03:28.537Z,99715.38
2022-09-06T00:05:55.951Z,99716.50
2022-09-06T00:08:23.052Z,99720.41
2022-09-06T00:11:01.056Z,99718.97
2022-09-06T00:13:28.799Z,99707.97
2022-09-06T00:15:56.215Z,99710.06
2022-09-06T00:18:23.871Z,99713.69
2022-09-06T00:20:51.065Z,99717.16
2022-09-06T00:23:18.469Z,99717.94
2022-09-06T00:25:45.621Z,99709.94
2022-09-06T00:28:12.759Z,99709.63
2022-09-06T00:30:40.158Z,99707.63
2022-09-06T00:33:07.788Z,99716.34
2022-09-06T00:35:35.267Z,99709.34
2022-09-06T00:38:02.812Z,99707.84
2022-09-06T00:40:32.829Z,99711.44
2022-09-06T00:42:59.896Z,99709.75
2022-09-06T00:45:27.834Z,99713.25
2022-09-06T00:47:55.473Z,99632.41
2022-09-06T00:50:22.777Z,99717.38
2022-09-06T00:52:51.940Z,99718.97
2022-09-06T00:55:20.115Z,99724.94
2022-09-06T00:57:51.157Z,99712.31
2022-09-06T01:00:19.252Z,99711.34
2022-09-06T01:02:46.870Z,99713.16
2022-09-06T01:05:14.649Z,99708.88
2022-09-06T01:07:48.009Z,99710.56
2022-09-06T01:10:24.149Z,99703.44
2022-09-06T01:13:14.505Z,99704.31
2022-09-06T01:15:51.366Z,99706.41
2022-09-06T01:18:21.952Z,99707.25
2022-09-06T01:20:55.171Z,99705.59
2022-09-06T01:23:29.297Z,99694.34
2022-09-06T01:26:05.779Z,99709.28
2022-09-06T01:28:33.107Z,99705.59
2022-09-06T01:31:17.956Z,99702.78
2022-09-06T01:33:48.568Z,99699.97
2022-09-06T01:36:19.246Z,99704.13
2022-09-06T01:38:46.668Z,99710.09
2022-09-06T01:41:14.224Z,99709.09
2022-09-06T01:43:44.243Z,99705.47
2022-09-06T01:46:20.951Z,99710.81
2022-09-06T01:48:51.437Z,99708.25
2022-09-06T01:51:30.044Z,99702.97
2022-09-06T01:54:15.765Z,99715.13
2022-09-06T01:56:52.578Z,99704.41
2022-09-06T01:59:30.770Z,99698.28
2022-09-06T02:02:08.848Z,99700.91
2022-09-06T02:04:35.981Z,99706.28
2022-09-06T02:07:10.889Z,99710.00
2022-09-06T02:09:41.353Z,99705.84
2022-09-06T02:12:12.661Z,99715.63
2022-09-06T02:14:43.639Z,99716.41
2022-09-06T02:17:13.731Z,99717.25
2022-09-06T02:20:01.085Z,99706.81
2022-09-06T02:22:31.108Z,99718.38
2022-09-06T02:24:59.758Z,99722.81
2022-09-06T02:27:27.640Z,99720.13
2022-09-06T02:29:55.300Z,99715.56
2022-09-06T02:32:23.764Z,99723.31
2022-09-06T02:34:52.755Z,99724.03
2022-09-06T02:37:20.538Z,99717.75
2022-09-06T02:39:47.675Z,99720.41
2022-09-06T02:42:15.900Z,99731.91
2022-09-06T02:44:43.626Z,99738.97
2022-09-06T02:47:10.769Z,99730.28
2022-09-06T02:49:37.918Z,99732.13
2022-09-06T02:52:05.569Z,99736.66
2022-09-06T02:54:32.904Z,99724.34
2022-09-06T02:57:00.308Z,99730.38
2022-09-06T02:59:28.093Z,99728.47
2022-09-06T03:01:55.299Z,99733.69
2022-09-06T03:04:22.397Z,99732.81
2022-09-06T03:06:50.065Z,99730.06
2022-09-06T03:09:17.126Z,99730.78
2022-09-06T03:11:44.543Z,99729.81
2022-09-06T03:14:11.975Z,99728.09
2022-09-06T03:16:39.113Z,99724.56
2022-09-06T03:19:06.464Z,99719.28
2022-09-06T03:21:34.208Z,99733.31
2022-09-06T03:24:01.744Z,99724.47
2022-09-06T03:26:30.349Z,99732.59
2022-09-06T03:28:57.744Z,99733.31
2022-09-06T03:31:25.045Z,99733.94
2022-09-06T03:33:52.208Z,99737.31
2022-09-06T03:36:19.810Z,99732.75
2022-09-06T03:38:47.173Z,99736.06
2022-09-06T03:41:14.290Z,99735.06
2022-09-06T03:43:41.792Z,99737.47
2022-09-06T03:46:09.080Z,99740.72
2022-09-06T03:48:36.550Z,99743.16
2022-09-06T03:51:04.010Z,99732.41
2022-09-06T03:53:31.250Z,99739.59
2022-09-06T03:55:58.945Z,99744.97
2022-09-06T03:58:30.004Z,99747.47
2022-09-06T04:01:01.647Z,99743.78
2022-09-06T04:03:28.954Z,99744.41
2022-09-06T04:05:56.236Z,99749.38
2022-09-06T04:08:23.352Z,99746.50
2022-09-06T04:10:52.945Z,99748.94
2022-09-06T04:13:21.230Z,99751.25
2022-09-06T04:15:48.582Z,99747.22
2022-09-06T04:18:16.241Z,99662.22
2022-09-06T04:20:43.642Z,99746.81
2022-09-06T04:23:11.026Z,99742.31
2022-09-06T04:25:38.472Z,99745.75
2022-09-06T04:28:06.284Z,99750.09
2022-09-06T04:30:33.633Z,99749.91
2022-09-06T04:33:00.868Z,99752.13
2022-09-06T04:35:28.368Z,99753.56
2022-09-06T04:37:55.762Z,99743.06
2022-09-06T04:40:23.139Z,99746.56
2022-09-06T04:42:50.369Z,99747.41
2022-09-06T04:45:17.497Z,99747.13
2022-09-06T04:47:44.639Z,99752.34
2022-09-06T04:50:12.143Z,99749.75
2022-09-06T04:52:39.216Z,99747.47
2022-09-06T04:55:06.629Z,99741.09
2022-09-06T04:57:34.221Z,99753.22
2022-09-06T05:00:01.307Z,99744.34
2022-09-06T05:02:31.183Z,99747.50
2022-09-06T05:04:58.486Z,99696.06
2022-09-06T05:07:26.269Z,99750.16
2022-09-06T05:09:53.670Z,99747.13
2022-09-06T05:12:20.884Z,99744.31
2022-09-06T05:14:48.045Z,99740.25
2022-09-06T05:17:15.288Z,99748.53
2022-09-06T05:19:42.464Z,99735.91
2022-09-06T05:22:11.397Z,99745.19
2022-09-06T05:24:39.222Z,99733.09
2022-09-06T05:27:07.792Z,99740.75
2022-09-06T05:29:35.079Z,99743.56
2022-09-06T05:32:02.589Z,99749.09
2022-09-06T05:34:29.995Z,99754.75
2022-09-06T05:36:57.247Z,99743.81
2022-09-06T05:39:24.935Z,99747.31
2022-09-06T05:41:52.265Z,99753.16
2022-09-06T05:44:19.532Z,99751.59
2022-09-06T05:46:46.817Z,99749.72
2022-09-06T05:49:14.415Z,99749.34
2022-09-06T05:51:41.678Z,99750.66
2022-09-06T05:54:11.031Z,99745.75
2022-09-06T05:56:38.447Z,99747.69
2022-09-06T05:59:06.178Z,99750.81
2022-09-06T06:01:33.457Z,99758.31
2022-09-06T06:04:02.604Z,99739.56
2022-09-06T06:06:31.005Z,99752.91
2022-09-06T06:08:58.579Z,99751.75
2022-09-06T06:11:27.316Z,99744.00
2022-09-06T06:13:54.577Z,99744.53
2022-09-06T06:16:22.615Z,99744.03
2022-09-06T06:18:52.297Z,99746.59
2022-09-06T06:21:23.993Z,99751.91
2022-09-06T06:23:55.403Z,99752.47
2022-09-06T06:26:24.177Z,99752.72
2022-09-06T06:28:51.896Z,99753.09
2022-09-06T06:31:21.485Z,99753.03
2022-09-06T06:33:49.232Z,99755.22
2022-09-06T06:36:16.558Z,99746.47
2022-09-06T06:38:44.858Z,99743.44
2022-09-06T06:41:13.146Z,99744.34
2022-09-06T06:43:40.465Z,99750.38
2022-09-06T06:46:09.099Z,99752.84
2022-09-06T06:48:36.876Z,99750.56
2022-09-06T06:51:04.336Z,99744.19
2022-09-06T06:53:33.234Z,99744.97
2022-09-06T06:56:00.725Z,99745.81
2022-09-06T06:58:28.392Z,99755.16
2022-09-06T07:00:56.363Z,99747.16
2022-09-06T07:03:23.507Z,99755.25
2022-09-06T07:08:38.576Z,99746.44
2022-09-06T07:11:06.525Z,99750.16
2022-09-06T07:13:34.387Z,99742.97
2022-09-06T07:16:20.758Z,99742.72
2022-09-06T07:18:50.933Z,99737.50
2022-09-06T07:24:10.234Z,99741.03
2022-09-06T07:26:39.717Z,99742.81
2022-09-06T07:29:08.170Z,99742.19
2022-09-06T07:34:26.058Z,99742.66
2022-09-06T07:36:54.353Z,99736.03
2022-09-06T07:39:21.698Z,99729.09
2022-09-06T07:41:49.201Z,99732.22
2022-09-06T07:44:16.919Z,99736.97
2022-09-06T07:46:44.407Z,99729.97
2022-09-06T07:49:11.653Z,99741.63
2022-09-06T07:51:39.401Z,99727.03
2022-09-06T07:54:28.889Z,99726.13
2022-09-06T07:56:55.129Z,99724.78
2022-09-06T07:59:22.730Z,99722.72
2022-09-06T08:01:50.592Z,99723.72
2022-09-06T08:04:18.004Z,99730.09
2022-09-06T08:09:36.333Z,99730.09
2022-09-06T08:12:07.115Z,99733.53
2022-09-06T08:14:35.103Z,99723.50
2022-09-06T08:17:03.039Z,99716.28
2022-09-06T08:19:30.443Z,99723.91
2022-09-06T08:21:57.909Z,99716.56
2022-09-06T08:24:25.365Z,99727.50
2022-09-06T08:26:52.838Z,99724.03
2022-09-06T08:29:20.549Z,99723.88
2022-09-06T08:31:48.335Z,99724.19
2022-09-06T08:34:16.167Z,99725.16
2022-09-06T08:36:44.363Z,99720.00
2022-09-06T08:39:12.177Z,99708.66
2022-09-06T08:41:58.730Z,99710.59
2022-09-06T08:47:16.448Z,99692.59
2022-09-06T08:49:47.941Z,99703.91
2022-09-06T08:52:21.667Z,99703.84
2022-09-06T08:55:04.119Z,99701.88
2022-09-06T08:57:31.470Z,99700.78
2022-09-06T09:00:02.413Z,99702.31
2022-09-06T09:02:43.080Z,99694.16
2022-09-06T09:05:16.382Z,99697.47
2022-09-06T09:07:45.346Z,99691.38
2022-09-06T09:10:24.445Z,99699.00
2022-09-06T09:12:52.184Z,99706.25
2022-09-06T09:15:20.201Z,99705.63
2022-09-06T09:17:47.687Z,99643.56
2022-09-06T09:20:15.565Z,99702.69
2022-09-06T09:22:43.709Z,99694.22
2022-09-06T09:25:16.696Z,99700.13
2022-09-06T09:27:44.946Z,99690.91
2022-09-06T09:33:00.567Z,99688.84
2022-09-06T09:35:27.862Z,99687.66
2022-09-06T09:38:09.299Z,99694.50
2022-09-06T09:40:49.426Z,99685.44
2022-09-06T09:43:22.884Z,99678.50
2022-09-06T09:46:09.945Z,99681.69
2022-09-06T09:48:38.073Z,99685.72
2022-09-06T09:51:26.568Z,99679.19
2022-09-06T09:54:02.443Z,99682.63
2022-09-06T09:56:41.904Z,99682.34
2022-09-06T09:59:23.690Z,99687.41
2022-09-06T10:01:52.397Z,99691.63
2022-09-06T10:07:16.556Z,99694.22
2022-09-06T10:09:46.687Z,99689.69
2022-09-06T10:12:17.126Z,99694.25
2022-09-06T10:14:45.967Z,99687.88
2022-09-06T10:17:42.570Z,99689.34
2022-09-06T10:20:10.859Z,99683.94
2022-09-06T10:22:51.069Z,99682.13
2022-09-06T10:25:38.340Z,99686.66
2022-09-06T10:28:19.641Z,99673.97
2022-09-06T10:30:52.780Z,99680.41
2022-09-06T10:33:20.168Z,99668.53
2022-09-06T10:35:47.714Z,99678.22
2022-09-06T10:38:14.817Z,99676.72
2022-09-06T10:40:41.854Z,99679.91
2022-09-06T10:43:14.273Z,99680.03
2022-09-06T10:45:46.851Z,99674.69
2022-09-06T10:48:40.500Z,99678.41
2022-09-06T10:51:07.576Z,99680.91
2022-09-06T10:53:43.840Z,99688.44
2022-09-06T10:56:13.533Z,99689.72
2022-09-06T11:01:38.374Z,99681.63
2022-09-06T11:04:12.770Z,99689.53
2022-09-06T11:06:45.621Z,99677.44
2022-09-06T11:09:18.566Z,99687.66
2022-09-06T11:11:50.858Z,99682.19
2022-09-06T11:14:20.668Z,99685.44
2022-09-06T11:17:07.946Z,99681.34
2022-09-06T11:19:41.269Z,99682.72
2022-09-06T11:22:11.767Z,99676.34
2022-09-06T11:25:08.349Z,99678.84
2022-09-06T11:27:38.381Z,99672.25
2022-09-06T11:30:06.960Z,99686.22
2022-09-06T11:32:48.811Z,99679.53
2022-09-06T11:35:24.087Z,99678.16
2022-09-06T11:38:00.353Z,99678.84
2022-09-06T11:40:30.139Z,99677.13
2022-09-06T11:42:59.510Z,99670.03
2022-09-06T11:45:46.077Z,99674.81
2022-09-06T11:48:26.697Z,99667.94
2022-09-06T11:50:54.539Z,99674.56
2022-09-06T11:53:23.311Z,99665.97
2022-09-06T11:55:52.037Z,99661.94
2022-09-06T11:58:48.863Z,99652.72
2022-09-06T12:01:16.796Z,99661.75
2022-09-06T12:04:09.880Z,99644.44
2022-09-06T12:06:42.180Z,99641.75
2022-09-06T12:09:29.664Z,99639.41
2022-09-06T12:11:57.890Z,99633.88
2022-09-06T12:14:42.901Z,99633.44
2022-09-06T12:17:11.598Z,99631.03
2022-09-06T12:19:49.544Z,99639.59
2022-09-06T12:22:48.983Z,99654.19
2022-09-06T12:25:19.479Z,99653.69
2022-09-06T12:27:57.085Z,99653.63
2022-09-06T12:30:50.556Z,99662.47
2022-09-06T12:33:39.015Z,99670.50
2022-09-06T12:36:32.627Z,99664.94
2022-09-06T12:39:10.198Z,99646.25
2022-09-06T12:41:43.257Z,99648.97
2022-09-06T12:44:11.223Z,99645.72
2022-09-06T12:46:40.099Z,99653.97
2022-09-06T12:49:08.989Z,99641.44
2022-09-06T12:51:37.595Z,99636.41
2022-09-06T12:54:06.289Z,99642.31
2022-09-06T12:56:34.690Z,99638.78
2022-09-06T12:59:11.555Z,99645.13
2022-09-06T13:01:39.467Z,99651.41
2022-09-06T13:04:12.493Z,99646.41
2022-09-06T13:06:42.258Z,99640.06
2022-09-06T13:09:13.985Z,99637.19
2022-09-06T13:11:44.755Z,99642.13
2022-09-06T13:14:14.654Z,99637.53
2022-09-06T13:16:49.532Z,99645.50
2022-09-06T13:19:19.069Z,99636.53
2022-09-06T13:21:46.822Z,99636.41
2022-09-06T13:24:21.638Z,99638.44
2022-09-06T13:26:49.694Z,99638.38
2022-09-06T13:29:16.834Z,99630.88
2022-09-06T13:31:45.612Z,99637.63
2022-09-06T13:34:19.937Z,99627.13
2022-09-06T13:36:54.099Z,99640.28
2022-09-06T13:39:34.545Z,99631.72
2022-09-06T13:42:03.457Z,99630.19
2022-09-06T13:44:31.724Z,99624.63
2022-09-06T13:46:59.002Z,99625.06
2022-09-06T13:49:26.577Z,99629.69
2022-09-06T13:51:54.546Z,99615.81
2022-09-06T13:54:22.943Z,99619.78
2022-09-06T13:56:50.394Z,99623.97
2022-09-06T13:59:17.656Z,99623.91
2022-09-06T14:01:54.198Z,99617.72
2022-09-06T14:04:21.683Z,99619.84
2022-09-06T14:06:49.343Z,99623.34
2022-09-06T14:09:16.886Z,99627.78
2022-09-06T14:11:48.232Z,99637.38
2022-09-06T14:14:17.900Z,99626.78
2022-09-06T14:16:45.488Z,99622.81
2022-09-06T14:19:12.587Z,99629.44
2022-09-06T14:21:58.105Z,99622.13
2022-09-06T14:24:25.276Z,99623.47
2022-09-06T14:26:52.548Z,99620.88
2022-09-06T14:29:19.876Z,99616.56
2022-09-06T14:31:48.556Z,99618.59
2022-09-06T14:34:15.922Z,99613.63
2022-09-06T14:36:43.328Z,99619.16
2022-09-06T14:39:10.485Z,99615.09
2022-09-06T14:41:37.579Z,99616.19
2022-09-06T14:44:05.117Z,99620.72
2022-09-06T14:46:32.357Z,99625.00
2022-09-06T14:49:04.491Z,99617.03
2022-09-06T14:51:32.022Z,99610.66
2022-09-06T14:54:00.525Z,99613.78
2022-09-06T14:56:27.771Z,99614.31
2022-09-06T14:59:01.258Z,99524.63
2022-09-06T15:01:35.765Z,99603.94
2022-09-06T15:04:16.067Z,99608.16
2022-09-06T15:06:48.969Z,99609.88
2022-09-06T15:09:21.653Z,99609.31
2022-09-06T15:11:50.854Z,99610.75
2022-09-06T15:14:37.764Z,99606.06
2022-09-06T15:17:09.008Z,99609.25
2022-09-06T15:19:39.885Z,99602.53
2022-09-06T15:22:09.754Z,99607.31
2022-09-06T15:24:46.218Z,99605.03
2022-09-06T15:27:15.053Z,99603.50
2022-09-06T15:29:44.927Z,99601.16
2022-09-06T15:32:13.915Z,99597.88
2022-09-06T15:34:41.081Z,99605.03
2022-09-06T15:37:08.237Z,99606.06
2022-09-06T15:39:35.721Z,99602.66
2022-09-06T15:42:03.045Z,99600.91
2022-09-06T15:44:33.451Z,99601.84
2022-09-06T15:47:04.195Z,99601.00
2022-09-06T15:49:33.388Z,99612.88
2022-09-06T15:52:04.484Z,99607.25
2022-09-06T15:54:52.877Z,99610.34
2022-09-06T15:57:23.481Z,99613.41
2022-09-06T15:59:51.929Z,99609.31
2022-09-06T16:02:21.709Z,99603.34
2022-09-06T16:04:53.796Z,99612.28
2022-09-06T16:07:22.274Z,99615.94
2022-09-06T16:09:49.612Z,99612.56
2022-09-06T16:12:22.185Z,99610.06
2022-09-06T16:14:50.337Z,99605.78
2022-09-06T16:17:22.084Z,99617.41
2022-09-06T16:19:52.445Z,99617.50
2022-09-06T16:22:20.378Z,99611.31
2022-09-06T16:24:55.102Z,99617.72
2022-09-06T16:27:24.745Z,99611.63
2022-09-06T16:30:01.404Z,99616.13
2022-09-06T16:32:33.056Z,99618.91
2022-09-06T16:35:08.599Z,99623.41
2022-09-06T16:37:39.519Z,99627.78
2022-09-06T16:40:10.176Z,99617.19
2022-09-06T16:42:38.112Z,99622.34
2022-09-06T16:45:14.161Z,99626.69
2022-09-06T16:47:42.681Z,99625.00
2022-09-06T16:50:09.918Z,99624.03
2022-09-06T16:52:42.997Z,99626.03
2022-09-06T16:55:11.071Z,99631.56
2022-09-06T16:57:45.650Z,99629.03
2022-09-06T17:00:19.086Z,99625.47
2022-09-06T17:02:47.944Z,99626.31
2022-09-06T17:05:24.074Z,99632.56
2022-09-06T17:07:52.292Z,99624.63
2022-09-06T17:10:22.664Z,99622.75
2022-09-06T17:12:52.119Z,99627.13
2022-09-06T17:15:22.412Z,99622.69
2022-09-06T17:17:52.281Z,99619.03
2022-09-06T17:20:20.761Z,99615.47
2022-09-06T17:22:51.790Z,99616.41
2022-09-06T17:25:19.127Z,99614.75
2022-09-06T17:27:48.727Z,99613.81
2022-09-06T17:30:22.084Z,99615.59
2022-09-06T17:32:50.442Z,99614.81
2022-09-06T17:35:18.497Z,99617.59
2022-09-06T17:37:50.573Z,99616.88
2022-09-06T17:40:18.221Z,99617.72
2022-09-06T17:42:46.172Z,99616.88
2022-09-06T17:45:16.709Z,99616.81
2022-09-06T17:47:44.075Z,99620.38
2022-09-06T17:50:12.454Z,99618.66
2022-09-06T17:52:40.712Z,99612.44
2022-09-06T17:55:08.406Z,99624.75
2022-09-06T17:57:36.277Z,99612.44
2022-09-06T18:00:05.901Z,99616.03
2022-09-06T18:02:34.832Z,99604.59
2022-09-06T18:05:02.052Z,99606.28
2022-09-06T18:07:32.816Z,99607.25
2022-09-06T18:10:00.973Z,99608.16
2022-09-06T18:12:33.383Z,99603.94
2022-09-06T18:15:05.713Z,99603.34
2022-09-06T18:17:33.405Z,99597.38
2022-09-06T18:20:06.355Z,99595.69
2022-09-06T18:22:33.953Z,99593.09
2022-09-06T18:25:02.508Z,99605.59
2022-09-06T18:27:32.532Z,99592.50
2022-09-06T18:30:01.313Z,99596.88
2022-09-06T18:32:33.642Z,99597.81
2022-09-06T18:35:01.471Z,99594.28
2022-09-06T18:40:56.840Z,99590.63
2022-09-06T18:43:36.858Z,99597.56
2022-09-06T18:46:06.198Z,99587.94
2022-09-06T18:48:37.664Z,99585.50
2022-09-06T18:51:05.815Z,99582.94
2022-09-06T18:53:33.621Z,99595.25
2022-09-06T18:56:01.626Z,99583.97
2022-09-06T18:58:28.759Z,99582.38
2022-09-06T19:01:02.455Z,99585.09
2022-09-06T19:03:33.572Z,99586.00
2022-09-06T19:06:10.485Z,99581.59
2022-09-06T19:08:41.643Z,99579.03
2022-09-06T19:11:10.422Z,99580.88
2022-09-06T19:16:50.030Z,99577.44
2022-09-06T19:19:18.387Z,99566.00
2022-09-06T19:21:51.061Z,99566.88
2022-09-06T19:24:27.278Z,99566.78
2022-09-06T19:26:57.955Z,99571.19
2022-09-06T19:29:27.237Z,99569.63
2022-09-06T19:31:56.603Z,99564.44
2022-09-06T19:34:27.349Z,99570.56
2022-09-06T19:36:59.576Z,99562.69
2022-09-06T19:39:36.323Z,99568.84
2022-09-06T19:42:08.588Z,99561.84
2022-09-06T19:44:39.874Z,99563.63
2022-09-06T19:47:12.924Z,99570.63
2022-09-06T19:49:44.882Z,99564.47
2022-09-06T19:52:16.545Z,99568.84
2022-09-06T19:54:45.276Z,99564.34
2022-09-06T19:57:17.341Z,99554.72
2022-09-06T19:59:45.257Z,99563.44
2022-09-06T20:02:18.122Z,99561.69
2022-09-06T20:04:53.843Z,99551.22
2022-09-06T20:07:26.660Z,99556.63
2022-09-06T20:10:02.485Z,99555.97
2022-09-06T20:12:34.827Z,99565.78
2022-09-06T20:15:02.331Z,99557.94
2022-09-06T20:17:34.254Z,99553.50
2022-09-06T20:20:03.771Z,99561.34
2022-09-06T20:22:32.499Z,99556.88
2022-09-06T20:25:02.903Z,99554.19
2022-09-06T20:27:42.547Z,99554.97
2022-09-06T20:30:20.090Z,99551.41
2022-09-06T20:33:02.216Z,99549.69
2022-09-06T20:35:33.921Z,99553.19
2022-09-06T20:38:01.325Z,99553.09
2022-09-06T20:40:28.439Z,99549.59
2022-09-06T20:42:55.786Z,99545.25
2022-09-06T20:45:25.739Z,99547.06
2022-09-06T20:47:53.310Z,99544.41
2022-09-06T20:50:21.091Z,99543.53
2022-09-06T20:52:48.460Z,99533.94
2022-09-06T20:55:15.561Z,99532.38
2022-09-06T20:57:43.497Z,99535.06
2022-09-06T21:00:14.220Z,99536.88
2022-09-06T21:02:41.822Z,99534.41
2022-09-06T21:05:09.013Z,99531.00
2022-09-06T21:07:36.770Z,99526.81
2022-09-06T21:10:04.046Z,99524.25
2022-09-06T21:12:31.322Z,99519.03
2022-09-06T21:14:59.157Z,99519.88
2022-09-06T21:17:26.210Z,99515.47
2022-09-06T21:19:53.731Z,99517.31
2022-09-06T21:22:21.300Z,99517.31
2022-09-06T21:24:49.200Z,99509.31
2022-09-06T21:27:16.842Z,99503.13
2022-09-06T21:29:44.177Z,99507.59
2022-09-06T21:32:11.278Z,99507.66
2022-09-06T21:34:38.264Z,99506.81
2022-09-06T21:37:05.562Z,99505.00
2022-09-06T21:39:32.709Z,99504.16
2022-09-06T21:41:59.956Z,99504.25
2022-09-06T21:44:27.209Z,99504.28
2022-09-06T21:46:55.144Z,99501.75
2022-09-06T21:49:22.355Z,99496.31
2022-09-06T21:51:50.063Z,99499.72
2022-09-06T21:54:17.207Z,99498.03
2022-09-06T21:56:44.453Z,99496.38
2022-09-06T21:59:11.846Z,99496.50
2022-09-06T22:01:39.971Z,99494.84
2022-09-06T22:04:07.668Z,99488.72
2022-09-06T22:06:35.601Z,99483.56
2022-09-06T22:09:05.114Z,99485.41
2022-09-06T22:11:33.033Z,99476.75
2022-09-06T22:14:01.381Z,99481.34
2022-09-06T22:16:29.599Z,99475.22
2022-09-06T22:18:56.950Z,99477.09
2022-09-06T22:21:24.889Z,99476.22
2022-09-06T22:23:53.775Z,99469.22
2022-09-06T22:26:21.582Z,99474.47
2022-09-06T22:28:52.526Z,99477.00
2022-09-06T22:31:19.847Z,99469.09
2022-09-06T22:33:47.181Z,99473.56
2022-09-06T22:36:14.692Z,99481.50
2022-09-06T22:38:41.868Z,99474.50
2022-09-06T22:41:09.567Z,99471.81
2022-09-06T22:43:36.837Z,99477.88
2022-09-06T22:46:07.314Z,99469.94
2022-09-06T22:48:34.722Z,99470.75
2022-09-06T22:51:02.558Z,99473.44
2022-09-06T22:53:30.341Z,99464.94
2022-09-06T22:55:57.387Z,99464.06
2022-09-06T22:58:25.659Z,99458.06
2022-09-06T23:00:53.804Z,99459.00
2022-09-06T23:03:21.395Z,99457.28
2022-09-06T23:05:49.190Z,99463.34
2022-09-06T23:08:16.459Z,99465.06
2022-09-06T23:10:44.633Z,99462.47
2022-09-06T23:13:12.242Z,99459.91
2022-09-06T23:15:41.120Z,99467.75
2022-09-06T23:18:08.636Z,99461.56
2022-09-06T23:20:37.277Z,99456.34
2022-09-06T23:23:04.943Z,99459.84
2022-09-06T23:25:32.455Z,99455.50
2022-09-06T23:28:00.784Z,99459.03
2022-09-06T23:30:28.113Z,99458.13
2022-09-06T23:32:56.607Z,99451.19
2022-09-06T23:35:24.467Z,99453.31
2022-09-06T23:37:51.649Z,99448.22
2022-09-06T23:40:18.913Z,99450.97
2022-09-06T23:42:46.735Z,99450.19
2022-09-06T23:45:14.078Z,99444.09
2022-09-06T23:47:41.782Z,99451.19
2022-09-06T23:50:09.605Z,99441.59
2022-09-06T23:52:36.891Z,99278.69
2022-09-06T23:55:04.370Z,99437.31
2022-09-06T23:57:31.764Z,99435.63
2022-09-06T23:59:58.866Z,99435.75
